Time;durP1;ratioP1;P1;durP2;ratioP2;P2;SDS_P1;SDS_P2;PMS_P1;PMS_P2;Temp;Humidity;BMP_temperature;BMP_pressure;BME280_temperature;BME280_humidity;BME280_pressure;Samples;Min_cycle;Max_cycle;Signal;HPM_P1;HPM_P2
2022/06/28 00:00:50;;;;;;;7.40;3.70;;;;;;;24.61;51.45;98796.41;4363760;32;20091;-72
2022/06/28 00:03:18;;;;;;;5.80;3.65;;;;;;;24.56;51.71;98802.41;4363760;32;20146;-73
2022/06/28 00:05:45;;;;;;;7.35;3.53;;;;;;;24.54;51.65;98806.34;4363867;32;20158;-72
2022/06/28 00:08:12;;;;;;;6.65;3.55;;;;;;;24.51;51.90;98807.66;4363734;32;20492;-72
2022/06/28 00:10:39;;;;;;;5.62;3.60;;;;;;;24.48;51.93;98820.66;4363469;32;20106;-72
2022/06/28 00:13:06;;;;;;;8.45;3.62;;;;;;;24.45;52.11;98817.41;4363707;32;20078;-72
2022/06/28 00:18:21;;;;;;;8.82;3.70;;;;;;;24.26;52.27;98808.56;4363790;32;20091;-72
2022/06/28 00:20:48;;;;;;;5.28;3.87;;;;;;;24.29;52.19;98811.84;4363610;32;20113;-72
2022/06/28 00:23:15;;;;;;;5.53;3.50;;;;;;;24.30;52.18;98810.78;4363632;32;20449;-72
2022/06/28 00:25:43;;;;;;;7.85;4.03;;;;;;;24.21;52.33;98800.41;4363529;32;20100;-72
2022/06/28 00:28:10;;;;;;;8.20;3.97;;;;;;;24.15;52.54;98798.63;4363540;32;20154;-72
2022/06/28 00:30:37;;;;;;;14.13;4.03;;;;;;;24.14;52.43;98797.00;4363413;32;20437;-72
2022/06/28 00:33:05;;;;;;;7.62;4.43;;;;;;;24.20;52.23;98790.72;4363345;32;20082;-72
2022/06/28 00:35:32;;;;;;;6.82;4.10;;;;;;;24.21;52.17;98781.66;4363398;32;20143;-72
2022/06/28 00:37:59;;;;;;;11.98;3.97;;;;;;;24.22;52.21;98793.19;4363396;32;20122;-73
2022/06/28 00:40:27;;;;;;;5.15;3.58;;;;;;;24.18;52.27;98792.00;4363313;32;20083;-72
2022/06/28 00:42:54;;;;;;;5.43;3.58;;;;;;;24.18;52.25;98797.34;4363407;32;20082;-72
2022/06/28 00:45:22;;;;;;;5.87;3.70;;;;;;;24.17;52.17;98801.09;4363226;32;20100;-72
2022/06/28 00:47:50;;;;;;;6.60;4.40;;;;;;;24.17;52.02;98806.44;4363193;32;20117;-72
2022/06/28 00:50:18;;;;;;;5.40;3.90;;;;;;;24.07;52.36;98802.44;4363171;32;20105;-72
2022/06/28 00:53:02;;;;;;;7.15;3.50;;;;;;;24.05;52.47;98806.38;4363394;32;20114;-72
2022/06/28 00:55:30;;;;;;;6.35;3.85;;;;;;;24.11;52.26;98812.69;4363134;32;20095;-72
2022/06/28 00:57:57;;;;;;;6.32;3.50;;;;;;;24.08;52.39;98814.75;4358437;32;160815;-72
2022/06/28 01:00:24;;;;;;;5.68;3.97;;;;;;;24.02;52.54;98814.84;4363393;32;20082;-72
2022/06/28 01:02:51;;;;;;;3.95;3.53;;;;;;;24.06;52.16;98816.03;4363279;32;20110;-72
2022/06/28 01:05:20;;;;;;;11.85;3.62;;;;;;;24.07;52.04;98817.66;4363363;32;20122;-72
2022/06/28 01:07:47;;;;;;;6.05;3.55;;;;;;;24.12;51.90;98822.34;4365393;32;20162;-72
2022/06/28 01:10:14;;;;;;;6.68;3.50;;;;;;;24.03;52.06;98816.50;4365269;32;20480;-72
2022/06/28 01:12:42;;;;;;;7.07;3.55;;;;;;;24.05;51.92;98814.38;4365500;32;20113;-73
2022/06/28 01:15:10;;;;;;;3.92;3.10;;;;;;;24.07;51.65;98817.66;4365231;32;20103;-73
2022/06/28 01:17:37;;;;;;;4.72;3.70;;;;;;;24.03;51.66;98819.97;4365422;32;20107;-72
2022/06/28 01:20:09;;;;;;;6.35;3.10;;;;;;;24.03;51.62;98816.50;4352111;32;20508;-72
2022/06/28 01:22:42;;;;;;;7.97;3.60;;;;;;;24.03;51.39;98811.94;4365269;32;20121;-72
2022/06/28 01:25:10;;;;;;;4.97;3.17;;;;;;;24.07;51.36;98814.97;4365226;32;20094;-72
2022/06/28 01:27:38;;;;;;;7.47;3.30;;;;;;;24.07;51.16;98820.31;4365293;32;20181;-72
2022/06/28 01:30:08;;;;;;;6.80;3.40;;;;;;;24.07;51.24;98817.66;4365093;32;20145;-72
2022/06/28 01:32:37;;;;;;;7.10;3.65;;;;;;;24.02;51.29;98814.84;4365036;32;20091;-72
2022/06/28 01:35:05;;;;;;;20.02;3.97;;;;;;;24.04;51.21;98815.41;4339285;32;20112;-72
2022/06/28 01:37:34;;;;;;;9.95;3.60;;;;;;;23.96;51.15;98808.50;4365267;32;20567;-72
2022/06/28 01:40:03;;;;;;;5.05;3.40;;;;;;;24.04;50.98;98802.03;4365133;32;20114;-72
2022/06/28 01:42:31;;;;;;;4.60;3.10;;;;;;;24.02;50.88;98798.78;4365219;32;20094;-72
2022/06/28 01:44:59;;;;;;;9.05;3.37;;;;;;;24.01;50.61;98799.81;4351616;32;20107;-72
2022/06/28 01:47:29;;;;;;;3.78;3.22;;;;;;;23.86;50.79;98798.34;4365076;32;20095;-72
2022/06/28 01:50:05;;;;;;;6.97;3.20;;;;;;;23.97;50.64;98806.66;4365087;32;20082;-72
2022/06/28 01:52:33;;;;;;;5.07;3.00;;;;;;;24.04;50.16;98805.56;4365268;32;20103;-72
2022/06/28 01:55:00;;;;;;;8.15;3.12;;;;;;;24.02;50.21;98810.28;4365089;32;20099;-72
2022/06/28 01:57:30;;;;;;;3.40;3.10;;;;;;;23.97;50.27;98820.88;4365012;32;20098;-72
2022/06/28 01:59:59;;;;;;;3.90;3.00;;;;;;;23.99;50.31;98826.00;4365118;32;20090;-72
2022/06/28 02:02:27;;;;;;;4.82;3.05;;;;;;;23.99;50.28;98823.31;4365194;32;20496;-72
2022/06/28 02:04:56;;;;;;;3.42;3.00;;;;;;;23.86;50.57;98822.44;4365031;32;20095;-72
2022/06/28 02:07:25;;;;;;;5.55;2.75;;;;;;;23.92;50.31;98821.53;4364978;32;20151;-72
2022/06/28 02:09:52;;;;;;;5.10;2.83;;;;;;;23.61;51.14;98816.28;4364921;32;20137;-72
2022/06/28 02:12:20;;;;;;;5.35;2.97;;;;;;;23.92;50.45;98816.19;4365092;32;20449;-72
2022/06/28 02:14:47;;;;;;;4.87;3.00;;;;;;;23.82;50.70;98818.53;4364949;32;20513;-72
2022/06/28 02:17:14;;;;;;;6.25;2.80;;;;;;;24.02;50.27;98820.19;4363964;32;20121;-72
2022/06/28 02:19:42;;;;;;;6.93;3.10;;;;;;;23.88;50.36;98820.34;4364672;32;20366;-72
2022/06/28 02:22:09;;;;;;;7.32;3.78;;;;;;;23.95;50.26;98816.75;4364932;32;20110;-72
2022/06/28 02:24:36;;;;;;;5.12;2.80;;;;;;;23.59;51.09;98811.16;4364855;32;20095;-72
2022/06/28 02:27:04;;;;;;;4.85;3.10;;;;;;;23.62;51.20;98810.72;4364572;32;20437;-72
2022/06/28 02:29:31;;;;;;;4.25;2.85;;;;;;;23.65;51.16;98812.09;4364653;32;20152;-72
2022/06/28 02:31:58;;;;;;;7.62;2.47;;;;;;;23.64;50.94;98815.84;4364668;32;20114;-72
2022/06/28 02:42:43;;;;;;;4.25;3.00;;;;;;;23.83;50.68;98833.53;4364548;32;20093;-72
2022/06/28 02:45:11;;;;;;;6.25;3.08;;;;;;;23.82;50.66;98836.44;4364764;32;20434;-72
2022/06/28 02:47:38;;;;;;;4.45;2.85;;;;;;;23.80;50.73;98831.31;4364559;32;20111;-72
2022/06/28 02:50:06;;;;;;;5.75;2.97;;;;;;;23.87;50.37;98826.72;4364459;32;20146;-72
2022/06/28 02:52:33;;;;;;;4.78;2.80;;;;;;;23.87;50.39;98824.03;4364500;32;20142;-72
2022/06/28 02:55:00;;;;;;;5.97;3.35;;;;;;;23.89;50.42;98823.81;4364492;32;20507;-72
2022/06/28 02:57:28;;;;;;;6.47;3.60;;;;;;;23.65;50.85;98817.44;4364772;32;20100;-72
2022/06/28 02:59:57;;;;;;;4.10;2.95;;;;;;;23.46;51.55;98825.44;4364668;32;20098;-72
2022/06/28 03:02:25;;;;;;;4.32;3.22;;;;;;;23.41;51.88;98833.31;4364524;32;20177;-72
2022/06/28 03:04:52;;;;;;;3.87;3.30;;;;;;;23.36;51.98;98823.28;4364378;32;20122;-72
2022/06/28 03:07:19;;;;;;;4.20;3.10;;;;;;;23.38;52.04;98823.06;4364624;32;20103;-72
2022/06/28 03:09:47;;;;;;;3.83;3.00;;;;;;;23.38;52.06;98820.41;4364670;32;20170;-72
2022/06/28 03:12:14;;;;;;;5.80;3.05;;;;;;;23.44;51.67;98807.97;4364389;32;20079;-72
2022/06/28 03:14:41;;;;;;;6.37;3.10;;;;;;;23.47;51.68;98807.56;4364484;32;20441;-72
2022/06/28 03:17:08;;;;;;;7.07;3.22;;;;;;;23.83;50.84;98816.66;4364448;32;20563;-72
2022/06/28 03:19:36;;;;;;;6.37;2.85;;;;;;;23.95;50.58;98814.09;4364326;32;20145;-72
2022/06/28 03:22:03;;;;;;;7.07;3.20;;;;;;;24.01;50.51;98823.91;4364703;32;20107;-72
2022/06/28 03:24:30;;;;;;;5.05;3.12;;;;;;;24.00;50.59;98833.00;4364556;32;20177;-72
2022/06/28 03:26:58;;;;;;;6.62;3.22;;;;;;;24.15;50.35;98845.97;4364492;32;20110;-73
2022/06/28 03:29:25;;;;;;;4.25;2.92;;;;;;;24.17;50.28;98851.94;4364048;32;20437;-72
2022/06/28 03:31:53;;;;;;;3.55;3.00;;;;;;;24.26;50.07;98864.78;4364446;32;20087;-72
2022/06/28 03:34:20;;;;;;;5.22;2.97;;;;;;;24.32;50.07;98878.34;4364126;32;20099;-72
2022/06/28 03:36:48;;;;;;;5.28;3.37;;;;;;;24.36;50.07;98890.22;4364480;32;20390;-72
2022/06/28 03:39:21;;;;;;;10.15;3.37;;;;;;;24.42;50.02;98905.38;4351670;32;20157;-72
2022/06/28 03:41:48;;;;;;;3.67;2.85;;;;;;;24.46;49.86;98911.94;4364266;32;20433;-72
2022/06/28 03:44:15;;;;;;;3.42;3.03;;;;;;;24.54;49.63;98908.12;4364186;32;20091;-72
2022/06/28 03:46:43;;;;;;;4.53;2.70;;;;;;;24.58;49.77;98926.22;4364378;32;20118;-72
2022/06/28 03:49:11;;;;;;;5.85;2.80;;;;;;;24.75;49.58;98931.78;4364258;32;20111;-72
2022/06/28 03:51:40;;;;;;;6.32;2.90;;;;;;;24.85;49.91;98946.53;4364187;32;20078;-72
2022/06/28 03:54:10;;;;;;;4.93;2.67;;;;;;;24.88;49.38;98946.09;4364206;32;20125;-72
2022/06/28 03:56:38;;;;;;;5.90;3.15;;;;;;;24.91;49.38;98941.09;4364287;32;20588;-72
2022/06/28 03:59:05;;;;;;;4.68;2.60;;;;;;;25.07;49.25;98944.16;4363931;32;20153;-72
2022/06/28 04:01:32;;;;;;;5.00;3.12;;;;;;;25.32;49.04;98952.91;4363871;32;20109;-73
2022/06/28 04:04:00;;;;;;;5.75;3.60;;;;;;;25.57;47.96;98949.25;4364063;32;20107;-72
2022/06/28 04:06:28;;;;;;;5.85;2.75;;;;;;;25.65;48.35;98942.72;4364179;32;20099;-72
2022/06/28 04:08:55;;;;;;;4.80;2.58;;;;;;;25.87;47.60;98942.97;4363646;32;20172;-72
2022/06/28 04:11:23;;;;;;;5.12;2.55;;;;;;;26.10;46.60;98949.41;4363770;32;20138;-73
2022/06/28 04:13:51;;;;;;;5.00;2.80;;;;;;;26.22;46.65;98963.66;4363718;32;20095;-73
2022/06/28 04:16:20;;;;;;;6.18;2.95;;;;;;;26.39;45.94;98971.84;4363978;32;20500;-72
2022/06/28 04:18:49;;;;;;;5.70;2.70;;;;;;;26.41;46.42;98972.41;4363647;32;20162;-72
2022/06/28 04:21:19;;;;;;;6.70;3.15;;;;;;;26.41;46.67;98971.59;4363678;32;20414;-72
2022/06/28 04:23:47;;;;;;;6.37;3.15;;;;;;;26.38;46.12;98976.38;4363933;32;20133;-73
2022/06/28 04:26:15;;;;;;;3.67;2.65;;;;;;;26.52;46.49;98976.12;4363544;32;20108;-72
2022/06/28 04:28:42;;;;;;;4.70;2.90;;;;;;;26.62;46.88;98983.59;4363715;32;20170;-73
2022/06/28 04:31:10;;;;;;;8.80;3.20;;;;;;;26.49;46.94;98985.47;4363558;32;20095;-72
2022/06/28 04:33:38;;;;;;;15.55;3.33;;;;;;;26.12;48.24;99001.84;4363490;32;20095;-73
2022/06/28 04:36:05;;;;;;;6.53;3.47;;;;;;;25.85;49.84;99004.94;4363810;32;20535;-72
2022/06/28 04:38:33;;;;;;;6.62;3.80;;;;;;;25.57;50.14;98991.34;4363360;32;20083;-72
2022/06/28 04:41:01;;;;;;;4.78;3.85;;;;;;;25.48;51.37;99013.16;4364467;32;20087;-72
2022/06/28 04:43:29;;;;;;;6.62;3.72;;;;;;;25.20;52.57;99011.00;4365600;32;20106;-72
2022/06/28 04:45:56;;;;;;;9.00;3.60;;;;;;;25.28;51.99;99009.87;4365605;32;20111;-72
2022/06/28 04:48:24;;;;;;;14.13;3.58;;;;;;;25.35;51.79;99018.69;4365445;32;20123;-72
2022/06/28 04:50:52;;;;;;;5.20;3.53;;;;;;;25.20;52.33;99024.44;4365565;32;20091;-73
2022/06/28 04:53:19;;;;;;;10.63;3.20;;;;;;;25.18;52.19;99034.56;4365559;32;20103;-73
2022/06/28 04:55:47;;;;;;;5.75;4.00;;;;;;;25.09;51.72;99033.25;4365620;32;20091;-72
2022/06/28 04:58:14;;;;;;;5.35;3.35;;;;;;;24.95;51.81;99033.41;4365574;32;20186;-72
2022/06/28 05:00:41;;;;;;;7.18;3.42;;;;;;;25.07;52.20;99024.59;4365284;32;20083;-73
2022/06/28 05:03:28;;;;;;;5.93;3.40;;;;;;;25.00;52.43;99037.25;4365227;32;20121;-72
2022/06/28 05:05:57;;;;;;;6.00;3.45;;;;;;;24.95;52.54;99038.75;4365513;32;20508;-73
2022/06/28 05:11:55;;;;;;;8.82;3.62;;;;;;;25.23;50.80;99045.41;4364439;32;20105;-72
2022/06/28 05:14:22;;;;;;;11.15;3.50;;;;;;;24.92;54.58;99051.78;4365554;32;20095;-73
2022/06/28 05:16:50;;;;;;;8.82;3.83;;;;;;;24.83;57.28;99053.12;4365261;32;20165;-72
2022/06/28 05:19:18;;;;;;;12.75;3.40;;;;;;;24.57;59.83;99036.25;4365411;32;20437;-72
2022/06/28 05:21:45;;;;;;;15.65;3.65;;;;;;;24.39;61.43;99026.34;4365108;32;20146;-72
2022/06/28 05:24:13;;;;;;;20.37;3.85;;;;;;;24.30;63.36;99035.69;4364873;32;20465;-73
2022/06/28 05:26:40;;;;;;;8.32;3.67;;;;;;;24.17;64.33;99020.59;4364923;32;20103;-73
2022/06/28 05:29:08;;;;;;;9.52;4.07;;;;;;;24.07;65.37;99015.72;4365200;32;20106;-73
2022/06/28 05:31:38;;;;;;;18.98;4.20;;;;;;;24.20;65.19;98988.81;4364961;32;20079;-73
2022/06/28 05:34:06;;;;;;;7.45;3.85;;;;;;;24.10;65.76;99023.28;4364974;32;20098;-73
2022/06/28 05:36:37;;;;;;;7.40;4.10;;;;;;;23.86;66.49;98999.00;4364932;32;20121;-72
2022/06/28 05:39:04;;;;;;;6.45;3.42;;;;;;;23.87;69.30;99000.63;4365363;32;20087;-72
2022/06/28 05:41:32;;;;;;;6.25;4.15;;;;;;;23.77;72.97;98984.25;4364744;32;20466;-72
2022/06/28 05:44:00;;;;;;;6.10;4.05;;;;;;;23.29;76.85;98966.06;4364696;32;20493;-72
2022/06/28 05:46:28;;;;;;;10.82;4.20;;;;;;;23.02;79.50;98947.47;4364871;32;20099;-71
2022/06/28 05:48:56;;;;;;;5.65;4.20;;;;;;;22.99;79.17;98935.34;4364647;32;20088;-71
2022/06/28 05:51:23;;;;;;;5.78;4.80;;;;;;;23.13;80.02;98913.91;4364727;32;20113;-71
2022/06/28 05:53:51;;;;;;;5.45;4.28;;;;;;;22.83;82.41;98899.28;4365119;32;20440;-71
2022/06/28 05:56:19;;;;;;;6.95;4.35;;;;;;;22.91;82.49;98910.72;4364928;32;20509;-72
2022/06/28 05:58:46;;;;;;;6.53;4.28;;;;;;;22.70;82.99;98910.00;4364996;32;20095;-72
2022/06/28 06:01:13;;;;;;;6.28;4.47;;;;;;;22.66;83.16;98893.59;4364707;32;20110;-72
2022/06/28 06:03:41;;;;;;;7.07;4.47;;;;;;;22.67;83.66;98899.75;4365127;32;20098;-72
2022/06/28 06:06:08;;;;;;;8.63;4.55;;;;;;;22.63;83.87;98923.38;4364808;32;20125;-72
2022/06/28 06:08:36;;;;;;;9.48;4.55;;;;;;;22.71;82.15;98918.84;4365008;32;20452;-72
2022/06/28 06:11:07;;;;;;;7.35;4.75;;;;;;;22.74;82.03;98918.41;4364543;32;20432;-72
2022/06/28 06:13:35;;;;;;;7.05;4.40;;;;;;;22.80;83.35;98912.22;4364884;32;20154;-72
2022/06/28 06:16:03;;;;;;;9.98;4.93;;;;;;;22.65;85.79;98896.47;4365044;32;20174;-72
2022/06/28 06:18:32;;;;;;;12.68;4.07;;;;;;;22.60;85.22;98889.09;4364809;32;20159;-72
2022/06/28 06:20:59;;;;;;;7.28;4.12;;;;;;;22.72;84.24;98885.75;4364746;32;20170;-73
2022/06/28 06:23:26;;;;;;;7.85;4.57;;;;;;;22.87;83.12;98880.94;4364943;32;20523;-73
2022/06/28 06:25:54;;;;;;;5.45;4.22;;;;;;;22.86;85.26;98898.84;4364638;32;20211;-72
2022/06/28 06:28:22;;;;;;;9.45;3.55;;;;;;;22.95;85.49;98944.00;4364674;32;20505;-72
2022/06/28 06:30:49;;;;;;;9.23;3.22;;;;;;;22.75;82.64;98982.28;4364903;32;20083;-72
2022/06/28 06:33:16;;;;;;;7.12;3.42;;;;;;;22.63;81.25;98960.75;4364912;32;20122;-72
2022/06/28 06:35:46;;;;;;;8.88;2.80;;;;;;;22.32;81.98;98914.25;4364832;32;20166;-72
2022/06/28 06:38:13;;;;;;;8.88;2.60;;;;;;;22.45;81.23;98886.72;4364587;32;20090;-72
2022/06/28 06:40:41;;;;;;;3.67;2.85;;;;;;;22.35;81.39;98864.97;4351532;32;20101;-72
2022/06/28 06:43:08;;;;;;;5.62;3.08;;;;;;;22.25;83.14;98854.69;4364969;32;20122;-72
2022/06/28 06:45:35;;;;;;;8.90;3.90;;;;;;;22.10;85.17;98878.97;4364795;32;20162;-73
2022/06/28 06:48:03;;;;;;;8.82;3.05;;;;;;;22.03;90.38;98952.03;4364494;32;20182;-73
2022/06/28 06:54:00;;;;;;;9.48;1.95;;;;;;;21.37;88.49;98937.66;4364684;32;20409;-74
2022/06/28 06:56:30;;;;;;;8.05;2.20;;;;;;;21.16;90.90;98989.25;4364951;32;20087;-74
2022/06/28 06:58:57;;;;;;;8.40;1.87;;;;;;;21.11;91.79;98975.75;4364571;32;20156;-74
2022/06/28 07:01:28;;;;;;;9.27;2.03;;;;;;;21.25;90.02;98977.41;4364731;32;20095;-74
2022/06/28 07:04:15;;;;;;;5.60;1.70;;;;;;;21.22;89.81;98977.81;4364090;32;20158;-74
2022/06/28 07:06:42;;;;;;;12.27;2.25;;;;;;;21.19;88.90;98964.87;4364733;32;20099;-74
2022/06/28 07:09:10;;;;;;;6.15;1.77;;;;;;;21.26;87.85;98966.53;4364297;32;20083;-74
2022/06/28 07:11:37;;;;;;;5.10;1.70;;;;;;;21.31;90.34;98973.13;4364475;32;20102;-74
2022/06/28 07:14:05;;;;;;;5.32;1.70;;;;;;;21.38;89.53;98963.28;4364661;32;20099;-74
2022/06/28 07:16:32;;;;;;;6.07;1.48;;;;;;;21.34;89.47;98962.88;4364583;32;20178;-74
2022/06/28 07:19:00;;;;;;;8.90;2.03;;;;;;;21.38;90.69;98956.13;4351317;32;20150;-74
2022/06/28 07:21:27;;;;;;;7.93;3.83;;;;;;;21.51;90.30;98959.84;4364188;32;20091;-74
2022/06/28 07:23:55;;;;;;;11.82;2.75;;;;;;;21.41;89.17;98950.38;4364384;32;20437;-74
2022/06/28 07:26:23;;;;;;;5.87;1.80;;;;;;;21.61;88.86;98937.09;4364516;32;20103;-75
2022/06/28 07:28:51;;;;;;;7.07;1.70;;;;;;;21.86;85.56;98919.66;4364467;32;20159;-74
2022/06/28 07:31:18;;;;;;;5.15;2.00;;;;;;;22.11;85.07;98909.16;4364579;32;20520;-74
2022/06/28 07:33:46;;;;;;;7.20;1.98;;;;;;;22.36;84.90;98917.31;4364558;32;20137;-74
2022/06/28 07:36:15;;;;;;;15.25;1.87;;;;;;;22.57;84.85;98918.06;4364217;32;20098;-74
2022/06/28 07:38:43;;;;;;;8.93;2.40;;;;;;;22.68;86.32;98930.78;4364434;32;20170;-75
2022/06/28 07:41:15;;;;;;;9.23;2.25;;;;;;;22.48;79.70;98930.84;4364405;32;20511;-74
2022/06/28 07:43:44;;;;;;;4.28;1.98;;;;;;;22.50;80.44;98942.94;4364156;32;20113;-74
2022/06/28 07:46:13;;;;;;;6.20;2.65;;;;;;;22.61;82.24;98949.47;4364204;32;20099;-74
2022/06/28 07:48:41;;;;;;;8.80;2.83;;;;;;;22.84;81.44;98951.63;4364354;32;20095;-74
2022/06/28 07:53:57;;;;;;;7.53;2.62;;;;;;;22.84;80.65;98951.63;4364335;32;20098;-74
2022/06/28 07:56:26;;;;;;;5.05;2.58;;;;;;;22.58;79.42;98973.13;4364364;32;20099;-74
2022/06/28 07:58:53;;;;;;;9.40;3.20;;;;;;;22.31;84.31;98975.84;4364031;32;20150;-74
2022/06/28 08:01:21;;;;;;;4.82;2.35;;;;;;;22.12;85.39;98978.31;4364042;32;20138;-75
2022/06/28 08:03:49;;;;;;;8.55;2.50;;;;;;;22.13;84.02;98973.78;4364050;32;20091;-75
2022/06/28 08:06:16;;;;;;;6.65;2.65;;;;;;;22.22;83.96;98972.53;4364168;32;20262;-75
2022/06/28 08:08:44;;;;;;;6.50;2.50;;;;;;;22.22;82.68;98975.22;4363839;32;20083;-75
2022/06/28 08:11:12;;;;;;;4.97;2.20;;;;;;;22.39;82.13;98964.97;4363439;32;20109;-74
2022/06/28 08:17:10;;;;;;;3.25;2.00;;;;;;;22.70;79.55;98962.63;4365433;32;20499;-75
2022/06/28 08:19:38;;;;;;;3.97;2.05;;;;;;;22.83;79.02;98958.03;4365633;32;20103;-75
2022/06/28 08:22:05;;;;;;;5.15;2.25;;;;;;;22.91;76.89;98959.63;4365798;32;20722;-75
2022/06/28 08:24:32;;;;;;;6.03;3.28;;;;;;;23.21;77.38;98970.63;4365384;32;20121;-76
2022/06/28 08:27:00;;;;;;;4.93;2.00;;;;;;;23.44;77.66;98966.56;4365575;32;20118;-75
2022/06/28 08:29:27;;;;;;;4.45;1.65;;;;;;;23.34;77.30;98963.53;4365469;32;20091;-76
2022/06/28 08:31:54;;;;;;;5.00;2.08;;;;;;;23.59;76.82;98965.44;4365404;32;20149;-76
2022/06/28 08:34:23;;;;;;;5.53;2.20;;;;;;;23.63;76.38;98972.00;4365215;32;20107;-76
2022/06/28 08:36:53;;;;;;;6.97;2.70;;;;;;;23.53;78.59;98969.81;4365479;32;20121;-76
2022/06/28 08:39:20;;;;;;;6.95;2.50;;;;;;;23.68;77.87;98974.81;4365464;32;20091;-76
2022/06/28 08:41:47;;;;;;;8.23;2.70;;;;;;;23.85;78.31;98970.59;4365602;32;20086;-76
2022/06/28 08:47:48;;;;;;;5.80;2.45;;;;;;;24.21;76.10;98976.25;4361984;32;20214;-76
2022/06/28 08:50:34;;;;;;;5.75;2.20;;;;;;;24.66;72.96;98977.88;4365209;32;20087;-76
2022/06/28 08:53:04;;;;;;;7.22;1.83;;;;;;;24.86;70.58;98981.16;4365389;32;20439;-76
2022/06/28 08:55:33;;;;;;;6.80;1.87;;;;;;;25.15;67.48;98989.44;4365178;32;20125;-76
2022/06/28 08:58:01;;;;;;;4.72;2.20;;;;;;;25.33;65.49;98986.75;4365285;32;20113;-76
2022/06/28 09:00:29;;;;;;;4.35;1.80;;;;;;;25.65;66.09;98993.72;4365297;32;20091;-76
2022/06/28 09:02:56;;;;;;;7.60;1.80;;;;;;;25.83;63.52;98990.13;4365115;32;20394;-76
2022/06/28 09:05:25;;;;;;;4.57;2.03;;;;;;;25.94;62.82;99001.94;4365326;32;20116;-76
2022/06/28 09:07:59;;;;;;;13.13;3.70;;;;;;;26.28;62.43;98994.94;4365162;32;20243;-75
2022/06/28 09:10:27;;;;;;;9.52;1.92;;;;;;;26.03;64.14;99003.25;4365155;32;20075;-75
2022/06/28 09:13:15;;;;;;;5.43;2.28;;;;;;;26.16;62.92;99015.63;4365031;32;20074;-75
2022/06/28 09:15:51;;;;;;;7.25;1.70;;;;;;;26.72;64.38;99008.84;4365062;32;20107;-75
2022/06/28 09:18:21;;;;;;;6.05;2.10;;;;;;;26.98;62.56;99006.66;4365271;32;20095;-75
2022/06/28 09:20:54;;;;;;;4.45;1.90;;;;;;;26.91;61.70;99005.97;4365312;32;20099;-75
2022/06/28 09:23:27;;;;;;;5.87;2.60;;;;;;;27.35;63.04;99011.69;4365318;32;20097;-75
2022/06/28 09:25:57;;;;;;;4.55;2.22;;;;;;;27.43;62.91;99005.94;4364783;32;20114;-75
2022/06/28 09:28:29;;;;;;;10.02;2.62;;;;;;;27.87;63.06;99016.06;4365152;32;20095;-75
2022/06/28 09:31:15;;;;;;;8.68;2.67;;;;;;;27.32;61.16;99014.03;4364958;32;20141;-75
2022/06/28 09:34:06;;;;;;;3.85;2.60;;;;;;;27.11;63.32;99026.25;4365083;32;20067;-75
2022/06/28 09:36:38;;;;;;;8.75;2.92;;;;;;;27.52;62.79;99027.88;4359685;32;20102;-75
2022/06/28 09:39:10;;;;;;;5.80;2.50;;;;;;;26.97;64.04;99036.47;4365031;32;20087;-75
2022/06/28 09:41:39;;;;;;;5.00;2.78;;;;;;;27.31;62.36;99023.13;4364958;32;20105;-75
2022/06/28 09:44:28;;;;;;;6.43;2.78;;;;;;;27.26;64.28;99027.38;4353725;32;20385;-75
2022/06/28 09:46:57;;;;;;;4.90;3.00;;;;;;;27.48;64.34;99026.72;4364937;32;20099;-75
2022/06/28 09:49:32;;;;;;;7.47;3.40;;;;;;;27.97;62.62;99037.00;4364866;32;20095;-75
2022/06/28 09:52:01;;;;;;;6.28;3.40;;;;;;;28.02;62.35;99037.06;4364973;32;20079;-75
2022/06/28 09:54:29;;;;;;;6.22;3.60;;;;;;;27.86;63.87;99037.84;4364800;32;20100;-75
2022/06/28 09:56:57;;;;;;;6.18;3.42;;;;;;;27.87;64.21;99026.84;4364795;32;20106;-75
2022/06/28 09:59:27;;;;;;;9.70;3.45;;;;;;;28.39;63.36;99035.75;4364801;32;20512;-75
2022/06/28 10:01:56;;;;;;;6.85;3.40;;;;;;;27.90;64.62;99041.69;4364763;32;20090;-75
2022/06/28 10:04:25;;;;;;;7.10;3.45;;;;;;;28.02;62.56;99036.28;4364772;32;20117;-75
2022/06/28 10:06:52;;;;;;;10.38;3.60;;;;;;;28.43;62.60;99047.66;4351560;32;20103;-75
2022/06/28 10:09:21;;;;;;;4.82;3.10;;;;;;;28.23;60.63;99032.03;4351547;32;20132;-75
2022/06/28 10:17:44;;;;;;;6.20;3.37;;;;;;;28.42;60.78;99051.41;4364660;32;20731;-75
2022/06/28 10:20:13;;;;;;;6.62;3.35;;;;;;;28.59;61.28;99040.63;4364682;32;20166;-75
2022/06/28 10:22:40;;;;;;;4.15;3.60;;;;;;;28.71;59.93;99043.22;4364695;32;20460;-75
2022/06/28 10:25:16;;;;;;;5.97;3.58;;;;;;;28.85;59.78;99034.50;4364728;32;20082;-76
2022/06/28 10:27:49;;;;;;;5.55;3.53;;;;;;;28.96;59.64;99040.03;4364645;32;20363;-75
2022/06/28 10:30:21;;;;;;;4.03;3.33;;;;;;;28.66;60.12;99034.00;4364850;32;20074;-75
2022/06/28 10:33:12;;;;;;;3.62;3.15;;;;;;;28.97;59.83;99037.09;4364593;32;20083;-76
2022/06/28 10:35:45;;;;;;;4.93;3.87;;;;;;;28.80;60.18;99022.88;4360691;32;20113;-76
2022/06/28 10:38:12;;;;;;;7.75;3.45;;;;;;;28.72;60.62;99034.91;4363768;32;20524;-76
2022/06/28 10:40:51;;;;;;;7.30;3.47;;;;;;;28.92;60.19;99033.50;4364646;32;20098;-76
2022/06/28 10:43:27;;;;;;;4.20;3.53;;;;;;;28.89;59.71;99039.41;4364630;32;20459;-76
2022/06/28 10:46:02;;;;;;;6.97;4.37;;;;;;;29.28;58.45;99028.56;4364613;32;20071;-76
2022/06/28 10:48:31;;;;;;;6.47;3.95;;;;;;;29.36;58.72;99033.50;4364967;32;20138;-76
2022/06/28 10:50:59;;;;;;;8.50;3.60;;;;;;;29.07;57.84;99036.41;4364565;32;20117;-76
2022/06/28 10:54:02;;;;;;;5.87;3.58;;;;;;;29.37;58.41;99024.31;4364508;32;20152;-76
2022/06/28 11:00:03;;;;;;;9.70;4.28;;;;;;;29.47;58.02;99018.22;4364642;32;20210;-77
2022/06/28 11:02:49;;;;;;;6.32;3.78;;;;;;;30.09;56.13;99017.69;4351041;32;20125;-77
2022/06/28 11:05:21;;;;;;;8.50;3.83;;;;;;;30.14;54.39;99014.19;4364478;32;20109;-76
2022/06/28 11:07:58;;;;;;;7.35;3.92;;;;;;;29.66;55.16;99015.97;4364396;32;20070;-77
2022/06/28 11:10:26;;;;;;;8.10;4.30;;;;;;;29.90;55.16;99016.47;4364450;32;20098;-77
2022/06/28 11:13:20;;;;;;;8.57;4.05;;;;;;;29.85;55.00;99009.13;4364273;32;20462;-77
2022/06/28 11:15:47;;;;;;;6.15;4.15;;;;;;;30.06;54.92;99022.81;4364798;32;20079;-77
2022/06/28 11:18:16;;;;;;;8.57;3.83;;;;;;;29.86;54.46;99012.66;4350998;32;20110;-77
2022/06/28 11:20:43;;;;;;;5.22;3.90;;;;;;;29.84;55.55;99012.09;4364345;32;20099;-77
2022/06/28 11:23:28;;;;;;;10.50;4.47;;;;;;;30.09;54.90;99023.09;4358157;32;20117;-77
2022/06/28 11:28:59;;;;;;;6.07;4.25;;;;;;;29.60;56.78;99017.81;4354650;32;20117;-77
2022/06/28 11:31:29;;;;;;;5.85;4.10;;;;;;;29.94;56.02;99009.47;4364099;32;20116;-77
2022/06/28 11:33:57;;;;;;;6.40;4.57;;;;;;;30.19;55.28;99011.56;4364390;32;20111;-77
2022/06/28 11:36:32;;;;;;;8.15;4.18;;;;;;;30.15;54.72;99013.13;4350864;32;20117;-77
2022/06/28 11:39:19;;;;;;;8.88;4.35;;;;;;;30.26;54.00;99006.72;4364326;32;20075;-77
2022/06/28 11:41:52;;;;;;;4.60;4.03;;;;;;;30.52;53.73;99008.78;4364366;32;20083;-77
2022/06/28 11:44:19;;;;;;;8.13;4.12;;;;;;;30.95;52.08;99001.41;4364265;32;20086;-77
2022/06/28 11:46:49;;;;;;;5.70;4.10;;;;;;;31.46;51.98;98988.00;4364158;32;20082;-77
2022/06/28 11:49:27;;;;;;;9.63;4.35;;;;;;;31.43;51.11;98988.56;4363949;32;20105;-77
2022/06/28 11:51:54;;;;;;;9.35;4.28;;;;;;;31.27;50.53;98990.41;4364065;32;20163;-77
2022/06/28 11:54:21;;;;;;;5.57;3.80;;;;;;;31.41;50.58;98987.19;4364025;32;20094;-77
2022/06/28 11:56:49;;;;;;;6.65;5.00;;;;;;;31.59;49.22;98992.09;4350633;32;20086;-77
2022/06/28 11:59:17;;;;;;;7.25;4.37;;;;;;;32.02;49.10;98979.09;4364054;32;20079;-77
2022/06/28 12:01:44;;;;;;;6.03;3.85;;;;;;;31.75;48.76;98979.37;4364178;32;20162;-77
2022/06/28 12:04:20;;;;;;;10.68;3.90;;;;;;;31.74;48.94;98971.53;4363819;32;20095;-77
2022/06/28 12:06:47;;;;;;;7.85;3.50;;;;;;;31.90;48.26;98973.16;4364073;32;20148;-77
2022/06/28 12:09:15;;;;;;;5.65;4.32;;;;;;;31.86;47.46;98969.34;4363817;32;20087;-77
2022/06/28 12:11:51;;;;;;;4.32;3.80;;;;;;;32.36;46.94;98961.41;4363582;32;20166;-77
2022/06/28 12:14:39;;;;;;;7.22;3.50;;;;;;;33.02;47.41;98962.22;4363828;32;20681;-77
2022/06/28 12:17:06;;;;;;;6.22;3.72;;;;;;;33.06;46.72;98957.84;4364079;32;20128;-77
2022/06/28 12:19:38;;;;;;;7.05;4.35;;;;;;;33.05;46.52;98965.19;4363633;32;20111;-77
2022/06/28 12:22:14;;;;;;;8.73;4.07;;;;;;;32.80;45.95;98959.91;4363428;32;20079;-77